sensor_id;sensor_type;location;lat;lon;timestamp;temperature;humidity
5554;DHT22;2800;49.528;8.666;2024-03-08T00:01:39;5.40;99.90
5554;DHT22;2800;49.528;8.666;2024-03-08T00:04:06;5.30;99.90
5554;DHT22;2800;49.528;8.666;2024-03-08T00:06:32;5.30;99.90
5554;DHT22;2800;49.528;8.666;2024-03-08T00:08:58;5.30;99.90
5554;DHT22;2800;49.528;8.666;2024-03-08T00:11:23;5.20;99.90
5554;DHT22;2800;49.528;8.666;2024-03-08T00:13:51;5.30;99.90
5554;DHT22;2800;49.528;8.666;2024-03-08T00:16:17;5.20;99.90
5554;DHT22;2800;49.528;8.666;2024-03-08T00:18:45;5.20;99.90
5554;DHT22;2800;49.528;8.666;2024-03-08T00:21:10;5.10;99.90
5554;DHT22;2800;49.528;8.666;2024-03-08T00:23:37;5.10;99.90
5554;DHT22;2800;49.528;8.666;2024-03-08T00:26:03;5.10;99.90
5554;DHT22;2800;49.528;8.666;2024-03-08T00:28:29;5.10;99.90
5554;DHT22;2800;49.528;8.666;2024-03-08T00:30:56;5.10;99.90
5554;DHT22;2800;49.528;8.666;2024-03-08T00:33:21;5.00;99.90
5554;DHT22;2800;49.528;8.666;2024-03-08T00:35:47;5.10;99.90
5554;DHT22;2800;49.528;8.666;2024-03-08T00:38:13;5.00;99.90
5554;DHT22;2800;49.528;8.666;2024-03-08T00:40:39;5.00;99.90
5554;DHT22;2800;49.528;8.666;2024-03-08T00:43:06;5.00;99.90
5554;DHT22;2800;49.528;8.666;2024-03-08T00:45:31;5.00;99.90
5554;DHT22;2800;49.528;8.666;2024-03-08T00:47:57;5.00;99.90
5554;DHT22;2800;49.528;8.666;2024-03-08T00:50:22;5.00;99.90
5554;DHT22;2800;49.528;8.666;2024-03-08T00:52:48;5.00;99.90
5554;DHT22;2800;49.528;8.666;2024-03-08T00:55:13;4.90;99.90
5554;DHT22;2800;49.528;8.666;2024-03-08T00:57:39;4.90;99.90
5554;DHT22;2800;49.528;8.666;2024-03-08T01:00:06;5.00;99.90
5554;DHT22;2800;49.528;8.666;2024-03-08T01:02:35;4.90;99.90
5554;DHT22;2800;49.528;8.666;2024-03-08T01:05:01;4.90;99.90
5554;DHT22;2800;49.528;8.666;2024-03-08T01:07:27;4.90;99.90
5554;DHT22;2800;49.528;8.666;2024-03-08T01:09:52;4.90;99.90
5554;DHT22;2800;49.528;8.666;2024-03-08T01:12:18;4.90;99.90
5554;DHT22;2800;49.528;8.666;2024-03-08T01:14:43;4.80;99.90
5554;DHT22;2800;49.528;8.666;2024-03-08T01:17:09;4.80;99.90
5554;DHT22;2800;49.528;8.666;2024-03-08T01:19:35;4.70;99.90
5554;DHT22;2800;49.528;8.666;2024-03-08T01:22:01;4.70;99.90
5554;DHT22;2800;49.528;8.666;2024-03-08T01:24:26;4.80;99.90
5554;DHT22;2800;49.528;8.666;2024-03-08T01:26:52;4.70;99.90
5554;DHT22;2800;49.528;8.666;2024-03-08T01:29:17;4.70;99.90
5554;DHT22;2800;49.528;8.666;2024-03-08T01:31:43;4.60;99.90
5554;DHT22;2800;49.528;8.666;2024-03-08T01:34:08;4.60;99.90
5554;DHT22;2800;49.528;8.666;2024-03-08T01:36:34;4.60;99.90
5554;DHT22;2800;49.528;8.666;2024-03-08T01:38:59;4.60;99.90
5554;DHT22;2800;49.528;8.666;2024-03-08T01:41:25;4.60;99.90
5554;DHT22;2800;49.528;8.666;2024-03-08T01:43:50;4.60;99.90
5554;DHT22;2800;49.528;8.666;2024-03-08T01:46:19;4.50;99.90
5554;DHT22;2800;49.528;8.666;2024-03-08T01:48:45;4.50;99.90
5554;DHT22;2800;49.528;8.666;2024-03-08T01:51:11;4.50;99.90
5554;DHT22;2800;49.528;8.666;2024-03-08T01:53:37;4.50;99.90
5554;DHT22;2800;49.528;8.666;2024-03-08T01:56:04;4.50;99.90
5554;DHT22;2800;49.528;8.666;2024-03-08T01:58:31;4.50;99.90
5554;DHT22;2800;49.528;8.666;2024-03-08T02:00:58;4.50;99.90
5554;DHT22;2800;49.528;8.666;2024-03-08T02:03:24;4.50;99.90
5554;DHT22;2800;49.528;8.666;2024-03-08T02:05:50;4.50;99.90
5554;DHT22;2800;49.528;8.666;2024-03-08T02:08:17;4.40;99.90
5554;DHT22;2800;49.528;8.666;2024-03-08T02:10:46;4.40;99.90
5554;DHT22;2800;49.528;8.666;2024-03-08T02:13:12;4.20;99.90
5554;DHT22;2800;49.528;8.666;2024-03-08T02:15:58;4.30;99.90
5554;DHT22;2800;49.528;8.666;2024-03-08T02:18:30;4.20;99.90
5554;DHT22;2800;49.528;8.666;2024-03-08T02:20:56;4.20;99.90
5554;DHT22;2800;49.528;8.666;2024-03-08T02:23:23;4.10;99.90
5554;DHT22;2800;49.528;8.666;2024-03-08T02:25:50;4.10;99.90
5554;DHT22;2800;49.528;8.666;2024-03-08T02:28:16;4.10;99.90
5554;DHT22;2800;49.528;8.666;2024-03-08T02:30:44;4.00;99.90
5554;DHT22;2800;49.528;8.666;2024-03-08T02:33:09;4.00;99.90
5554;DHT22;2800;49.528;8.666;2024-03-08T02:35:35;3.90;99.90
5554;DHT22;2800;49.528;8.666;2024-03-08T02:38:02;3.90;99.90
5554;DHT22;2800;49.528;8.666;2024-03-08T02:40:29;3.80;99.90
5554;DHT22;2800;49.528;8.666;2024-03-08T02:42:54;3.70;99.90
5554;DHT22;2800;49.528;8.666;2024-03-08T02:45:20;3.60;99.90
5554;DHT22;2800;49.528;8.666;2024-03-08T02:47:46;3.60;99.90
5554;DHT22;2800;49.528;8.666;2024-03-08T02:50:11;3.60;99.90
5554;DHT22;2800;49.528;8.666;2024-03-08T02:52:37;3.40;99.90
5554;DHT22;2800;49.528;8.666;2024-03-08T02:55:03;3.40;99.90
5554;DHT22;2800;49.528;8.666;2024-03-08T02:57:31;3.30;99.90
5554;DHT22;2800;49.528;8.666;2024-03-08T02:59:57;3.20;99.90
5554;DHT22;2800;49.528;8.666;2024-03-08T03:02:25;3.20;99.90
5554;DHT22;2800;49.528;8.666;2024-03-08T03:04:52;3.20;99.90
5554;DHT22;2800;49.528;8.666;2024-03-08T03:07:17;3.20;99.90
5554;DHT22;2800;49.528;8.666;2024-03-08T03:09:43;3.30;99.90
5554;DHT22;2800;49.528;8.666;2024-03-08T03:12:08;3.30;99.90
5554;DHT22;2800;49.528;8.666;2024-03-08T03:14:35;3.30;99.90
5554;DHT22;2800;49.528;8.666;2024-03-08T03:17:04;3.40;99.90
5554;DHT22;2800;49.528;8.666;2024-03-08T03:19:30;3.50;99.90
5554;DHT22;2800;49.528;8.666;2024-03-08T03:21:55;3.40;99.90
5554;DHT22;2800;49.528;8.666;2024-03-08T03:24:21;3.50;99.90
5554;DHT22;2800;49.528;8.666;2024-03-08T03:26:47;3.40;99.90
5554;DHT22;2800;49.528;8.666;2024-03-08T03:29:14;3.50;99.90
5554;DHT22;2800;49.528;8.666;2024-03-08T03:31:40;3.60;99.90
5554;DHT22;2800;49.528;8.666;2024-03-08T03:34:06;3.60;99.90
5554;DHT22;2800;49.528;8.666;2024-03-08T03:36:34;3.50;99.90
5554;DHT22;2800;49.528;8.666;2024-03-08T03:39:01;3.50;99.90
5554;DHT22;2800;49.528;8.666;2024-03-08T03:41:41;3.50;99.90
5554;DHT22;2800;49.528;8.666;2024-03-08T03:44:07;3.40;99.90
5554;DHT22;2800;49.528;8.666;2024-03-08T03:46:33;3.50;99.90
5554;DHT22;2800;49.528;8.666;2024-03-08T03:48:59;3.50;99.90
5554;DHT22;2800;49.528;8.666;2024-03-08T03:51:25;3.40;99.90
5554;DHT22;2800;49.528;8.666;2024-03-08T03:53:51;3.30;99.90
5554;DHT22;2800;49.528;8.666;2024-03-08T03:56:16;3.20;99.90
5554;DHT22;2800;49.528;8.666;2024-03-08T03:58:42;3.20;99.90
5554;DHT22;2800;49.528;8.666;2024-03-08T04:01:08;3.10;99.90
5554;DHT22;2800;49.528;8.666;2024-03-08T04:03:33;3.10;99.90
5554;DHT22;2800;49.528;8.666;2024-03-08T04:05:58;2.90;99.90
5554;DHT22;2800;49.528;8.666;2024-03-08T04:08:24;3.10;99.90
5554;DHT22;2800;49.528;8.666;2024-03-08T04:10:50;3.00;99.90
5554;DHT22;2800;49.528;8.666;2024-03-08T04:13:16;3.00;99.90
5554;DHT22;2800;49.528;8.666;2024-03-08T04:15:42;3.00;99.90
5554;DHT22;2800;49.528;8.666;2024-03-08T04:18:09;2.90;99.90
5554;DHT22;2800;49.528;8.666;2024-03-08T04:20:35;2.90;99.90
5554;DHT22;2800;49.528;8.666;2024-03-08T04:23:02;3.00;99.90
5554;DHT22;2800;49.528;8.666;2024-03-08T04:25:27;3.00;99.90
5554;DHT22;2800;49.528;8.666;2024-03-08T04:27:53;2.90;99.90
5554;DHT22;2800;49.528;8.666;2024-03-08T04:30:18;2.80;99.90
5554;DHT22;2800;49.528;8.666;2024-03-08T04:32:46;2.80;99.90
5554;DHT22;2800;49.528;8.666;2024-03-08T04:35:12;2.90;99.90
5554;DHT22;2800;49.528;8.666;2024-03-08T04:37:38;2.90;99.90
5554;DHT22;2800;49.528;8.666;2024-03-08T04:40:05;3.10;99.90
5554;DHT22;2800;49.528;8.666;2024-03-08T04:42:30;3.00;99.90
5554;DHT22;2800;49.528;8.666;2024-03-08T04:44:58;3.00;99.90
5554;DHT22;2800;49.528;8.666;2024-03-08T04:47:23;3.00;99.90
5554;DHT22;2800;49.528;8.666;2024-03-08T04:49:50;3.00;99.90
5554;DHT22;2800;49.528;8.666;2024-03-08T04:52:15;2.90;99.90
5554;DHT22;2800;49.528;8.666;2024-03-08T04:54:42;2.90;99.90
5554;DHT22;2800;49.528;8.666;2024-03-08T04:57:08;2.80;99.90
5554;DHT22;2800;49.528;8.666;2024-03-08T04:59:33;2.70;99.90
5554;DHT22;2800;49.528;8.666;2024-03-08T05:01:59;2.80;99.90
5554;DHT22;2800;49.528;8.666;2024-03-08T05:04:24;2.90;99.90
5554;DHT22;2800;49.528;8.666;2024-03-08T05:06:50;3.00;99.90
5554;DHT22;2800;49.528;8.666;2024-03-08T05:09:15;3.10;99.90
5554;DHT22;2800;49.528;8.666;2024-03-08T05:11:45;3.10;99.90
5554;DHT22;2800;49.528;8.666;2024-03-08T05:14:11;3.00;99.90
5554;DHT22;2800;49.528;8.666;2024-03-08T05:16:45;2.90;99.90
5554;DHT22;2800;49.528;8.666;2024-03-08T05:19:20;2.90;99.90
5554;DHT22;2800;49.528;8.666;2024-03-08T05:21:47;3.00;99.90
5554;DHT22;2800;49.528;8.666;2024-03-08T05:24:13;3.00;99.90
5554;DHT22;2800;49.528;8.666;2024-03-08T05:26:40;3.00;99.90
5554;DHT22;2800;49.528;8.666;2024-03-08T05:29:05;3.00;99.90
5554;DHT22;2800;49.528;8.666;2024-03-08T05:31:42;3.00;99.90
5554;DHT22;2800;49.528;8.666;2024-03-08T05:34:08;3.00;99.90
5554;DHT22;2800;49.528;8.666;2024-03-08T05:36:35;3.10;99.90
5554;DHT22;2800;49.528;8.666;2024-03-08T05:39:01;2.90;99.90
5554;DHT22;2800;49.528;8.666;2024-03-08T05:41:26;2.80;99.90
5554;DHT22;2800;49.528;8.666;2024-03-08T05:43:51;2.80;99.90
5554;DHT22;2800;49.528;8.666;2024-03-08T05:46:17;2.90;99.90
5554;DHT22;2800;49.528;8.666;2024-03-08T05:48:43;2.80;99.90
5554;DHT22;2800;49.528;8.666;2024-03-08T05:51:09;2.70;99.90
5554;DHT22;2800;49.528;8.666;2024-03-08T05:53:35;2.70;99.90
5554;DHT22;2800;49.528;8.666;2024-03-08T05:56:00;2.80;99.90
5554;DHT22;2800;49.528;8.666;2024-03-08T05:58:27;2.90;99.90
5554;DHT22;2800;49.528;8.666;2024-03-08T06:00:55;2.90;99.90
5554;DHT22;2800;49.528;8.666;2024-03-08T06:03:21;2.80;99.90
5554;DHT22;2800;49.528;8.666;2024-03-08T06:05:48;2.70;99.90
5554;DHT22;2800;49.528;8.666;2024-03-08T06:08:13;2.70;99.90
5554;DHT22;2800;49.528;8.666;2024-03-08T06:10:40;2.90;99.90
5554;DHT22;2800;49.528;8.666;2024-03-08T06:13:06;3.00;99.90
5554;DHT22;2800;49.528;8.666;2024-03-08T06:15:32;2.90;99.90
5554;DHT22;2800;49.528;8.666;2024-03-08T06:17:57;2.90;99.90
5554;DHT22;2800;49.528;8.666;2024-03-08T06:20:23;2.90;99.90
5554;DHT22;2800;49.528;8.666;2024-03-08T06:22:51;2.80;99.90
5554;DHT22;2800;49.528;8.666;2024-03-08T06:25:17;2.80;99.90
5554;DHT22;2800;49.528;8.666;2024-03-08T06:27:43;2.80;99.90
5554;DHT22;2800;49.528;8.666;2024-03-08T06:30:10;2.70;99.90
5554;DHT22;2800;49.528;8.666;2024-03-08T06:32:36;2.80;99.90
5554;DHT22;2800;49.528;8.666;2024-03-08T06:35:05;3.10;99.90
5554;DHT22;2800;49.528;8.666;2024-03-08T06:37:34;3.50;99.90
5554;DHT22;2800;49.528;8.666;2024-03-08T06:40:00;3.80;99.90
5554;DHT22;2800;49.528;8.666;2024-03-08T06:42:29;4.10;99.90
5554;DHT22;2800;49.528;8.666;2024-03-08T06:44:59;4.30;99.90
5554;DHT22;2800;49.528;8.666;2024-03-08T06:47:30;4.40;99.90
5554;DHT22;2800;49.528;8.666;2024-03-08T06:49:55;4.60;99.90
5554;DHT22;2800;49.528;8.666;2024-03-08T06:52:21;4.70;99.90
5554;DHT22;2800;49.528;8.666;2024-03-08T06:54:47;4.70;99.90
5554;DHT22;2800;49.528;8.666;2024-03-08T06:57:13;4.70;99.90
5554;DHT22;2800;49.528;8.666;2024-03-08T06:59:39;4.50;99.90
5554;DHT22;2800;49.528;8.666;2024-03-08T07:02:05;4.60;99.90
5554;DHT22;2800;49.528;8.666;2024-03-08T07:04:30;4.50;99.90
5554;DHT22;2800;49.528;8.666;2024-03-08T07:06:56;4.70;99.90
5554;DHT22;2800;49.528;8.666;2024-03-08T07:09:26;4.80;99.90
5554;DHT22;2800;49.528;8.666;2024-03-08T07:11:51;4.90;99.90
5554;DHT22;2800;49.528;8.666;2024-03-08T07:14:21;5.00;99.90
5554;DHT22;2800;49.528;8.666;2024-03-08T07:16:47;5.00;99.90
5554;DHT22;2800;49.528;8.666;2024-03-08T07:19:13;4.90;99.90
5554;DHT22;2800;49.528;8.666;2024-03-08T07:21:38;5.10;99.90
5554;DHT22;2800;49.528;8.666;2024-03-08T07:24:04;5.20;99.90
5554;DHT22;2800;49.528;8.666;2024-03-08T07:26:47;5.30;99.90
5554;DHT22;2800;49.528;8.666;2024-03-08T07:29:15;5.70;99.90
5554;DHT22;2800;49.528;8.666;2024-03-08T07:31:41;5.80;99.90
5554;DHT22;2800;49.528;8.666;2024-03-08T07:34:06;5.70;99.90
5554;DHT22;2800;49.528;8.666;2024-03-08T07:36:33;6.00;99.90
5554;DHT22;2800;49.528;8.666;2024-03-08T07:38:59;6.20;99.90
5554;DHT22;2800;49.528;8.666;2024-03-08T07:41:24;5.70;99.90
5554;DHT22;2800;49.528;8.666;2024-03-08T07:43:51;5.40;99.90
5554;DHT22;2800;49.528;8.666;2024-03-08T07:46:17;6.00;99.90
5554;DHT22;2800;49.528;8.666;2024-03-08T07:48:44;6.50;99.90
5554;DHT22;2800;49.528;8.666;2024-03-08T07:51:10;7.00;99.90
5554;DHT22;2800;49.528;8.666;2024-03-08T07:53:37;6.90;99.90
5554;DHT22;2800;49.528;8.666;2024-03-08T07:56:04;6.40;99.90
5554;DHT22;2800;49.528;8.666;2024-03-08T07:58:30;6.60;99.90
5554;DHT22;2800;49.528;8.666;2024-03-08T08:00:56;6.60;99.90
5554;DHT22;2800;49.528;8.666;2024-03-08T08:03:21;6.80;99.90
5554;DHT22;2800;49.528;8.666;2024-03-08T08:05:47;6.40;99.90
5554;DHT22;2800;49.528;8.666;2024-03-08T08:08:14;6.30;99.90
5554;DHT22;2800;49.528;8.666;2024-03-08T08:10:40;6.30;99.90
5554;DHT22;2800;49.528;8.666;2024-03-08T08:13:06;6.60;99.90
5554;DHT22;2800;49.528;8.666;2024-03-08T08:15:31;6.80;99.90
5554;DHT22;2800;49.528;8.666;2024-03-08T08:17:59;6.90;99.90
5554;DHT22;2800;49.528;8.666;2024-03-08T08:20:25;6.70;99.90
5554;DHT22;2800;49.528;8.666;2024-03-08T08:22:51;6.60;99.90
5554;DHT22;2800;49.528;8.666;2024-03-08T08:25:17;7.00;99.90
5554;DHT22;2800;49.528;8.666;2024-03-08T08:27:45;6.70;99.90
5554;DHT22;2800;49.528;8.666;2024-03-08T08:30:12;6.70;99.90
5554;DHT22;2800;49.528;8.666;2024-03-08T08:32:38;6.50;99.90
5554;DHT22;2800;49.528;8.666;2024-03-08T08:35:09;6.20;99.90
5554;DHT22;2800;49.528;8.666;2024-03-08T08:37:39;6.60;99.90
5554;DHT22;2800;49.528;8.666;2024-03-08T08:40:06;6.50;99.90
5554;DHT22;2800;49.528;8.666;2024-03-08T08:42:36;6.40;99.90
5554;DHT22;2800;49.528;8.666;2024-03-08T08:45:01;7.20;99.90
5554;DHT22;2800;49.528;8.666;2024-03-08T08:47:27;7.10;99.90
5554;DHT22;2800;49.528;8.666;2024-03-08T08:49:53;7.10;99.90
5554;DHT22;2800;49.528;8.666;2024-03-08T08:52:19;7.50;99.90
5554;DHT22;2800;49.528;8.666;2024-03-08T08:54:45;7.90;99.90
5554;DHT22;2800;49.528;8.666;2024-03-08T08:57:10;7.70;99.90
5554;DHT22;2800;49.528;8.666;2024-03-08T08:59:36;7.40;99.90
5554;DHT22;2800;49.528;8.666;2024-03-08T09:02:02;7.40;99.90
5554;DHT22;2800;49.528;8.666;2024-03-08T09:04:29;7.70;99.90
5554;DHT22;2800;49.528;8.666;2024-03-08T09:06:56;8.40;99.90
5554;DHT22;2800;49.528;8.666;2024-03-08T09:09:22;9.10;99.90
5554;DHT22;2800;49.528;8.666;2024-03-08T09:11:47;8.80;99.90
5554;DHT22;2800;49.528;8.666;2024-03-08T09:14:15;9.30;99.90
5554;DHT22;2800;49.528;8.666;2024-03-08T09:16:40;8.80;99.90
5554;DHT22;2800;49.528;8.666;2024-03-08T09:19:06;8.90;99.90
5554;DHT22;2800;49.528;8.666;2024-03-08T09:21:35;8.30;99.90
5554;DHT22;2800;49.528;8.666;2024-03-08T09:24:01;8.40;99.90
5554;DHT22;2800;49.528;8.666;2024-03-08T09:26:26;8.00;99.90
5554;DHT22;2800;49.528;8.666;2024-03-08T09:28:52;8.20;99.90
5554;DHT22;2800;49.528;8.666;2024-03-08T09:31:20;8.50;99.90
5554;DHT22;2800;49.528;8.666;2024-03-08T09:33:46;9.70;99.90
5554;DHT22;2800;49.528;8.666;2024-03-08T09:36:12;10.00;99.90
5554;DHT22;2800;49.528;8.666;2024-03-08T09:38:39;10.80;99.90
5554;DHT22;2800;49.528;8.666;2024-03-08T09:41:05;10.90;99.90
5554;DHT22;2800;49.528;8.666;2024-03-08T09:43:30;11.00;99.90
5554;DHT22;2800;49.528;8.666;2024-03-08T09:45:57;11.50;99.90
5554;DHT22;2800;49.528;8.666;2024-03-08T09:48:23;10.40;99.90
5554;DHT22;2800;49.528;8.666;2024-03-08T09:50:48;9.60;99.90
5554;DHT22;2800;49.528;8.666;2024-03-08T09:53:15;9.50;99.90
5554;DHT22;2800;49.528;8.666;2024-03-08T09:55:42;9.30;99.90
5554;DHT22;2800;49.528;8.666;2024-03-08T09:58:12;9.90;99.90
5554;DHT22;2800;49.528;8.666;2024-03-08T10:00:56;10.00;99.90
5554;DHT22;2800;49.528;8.666;2024-03-08T10:03:23;9.70;99.90
5554;DHT22;2800;49.528;8.666;2024-03-08T10:05:48;9.70;99.90
5554;DHT22;2800;49.528;8.666;2024-03-08T10:08:14;9.40;99.90
5554;DHT22;2800;49.528;8.666;2024-03-08T10:10:40;10.70;99.90
5554;DHT22;2800;49.528;8.666;2024-03-08T10:13:09;10.40;99.90
5554;DHT22;2800;49.528;8.666;2024-03-08T10:15:36;11.10;99.90
5554;DHT22;2800;49.528;8.666;2024-03-08T10:18:02;12.00;99.70
5554;DHT22;2800;49.528;8.666;2024-03-08T10:20:29;12.00;99.90
5554;DHT22;2800;49.528;8.666;2024-03-08T10:22:59;12.00;98.70
5554;DHT22;2800;49.528;8.666;2024-03-08T10:25:25;12.30;98.70
5554;DHT22;2800;49.528;8.666;2024-03-08T10:27:50;11.30;98.70
5554;DHT22;2800;49.528;8.666;2024-03-08T10:30:17;10.80;98.80
5554;DHT22;2800;49.528;8.666;2024-03-08T10:32:45;11.60;99.60
5554;DHT22;2800;49.528;8.666;2024-03-08T10:35:11;10.80;98.10
5554;DHT22;2800;49.528;8.666;2024-03-08T10:37:45;10.90;98.10
5554;DHT22;2800;49.528;8.666;2024-03-08T10:40:19;10.50;98.40
5554;DHT22;2800;49.528;8.666;2024-03-08T10:42:56;10.40;98.90
5554;DHT22;2800;49.528;8.666;2024-03-08T10:45:39;11.30;99.30
5554;DHT22;2800;49.528;8.666;2024-03-08T10:48:30;12.10;98.80
5554;DHT22;2800;49.528;8.666;2024-03-08T10:51:02;11.10;97.70
5554;DHT22;2800;49.528;8.666;2024-03-08T10:53:29;11.30;97.90
5554;DHT22;2800;49.528;8.666;2024-03-08T10:55:57;10.70;98.30
5554;DHT22;2800;49.528;8.666;2024-03-08T10:58:25;10.30;98.30
5554;DHT22;2800;49.528;8.666;2024-03-08T11:00:55;10.60;98.70
5554;DHT22;2800;49.528;8.666;2024-03-08T11:06:08;11.40;98.50
5554;DHT22;2800;49.528;8.666;2024-03-08T11:08:37;11.40;98.30
5554;DHT22;2800;49.528;8.666;2024-03-08T11:11:04;10.70;98.10
5554;DHT22;2800;49.528;8.666;2024-03-08T11:13:33;11.40;98.70
5554;DHT22;2800;49.528;8.666;2024-03-08T11:16:02;11.30;98.80
5554;DHT22;2800;49.528;8.666;2024-03-08T11:18:33;12.20;98.80
5554;DHT22;2800;49.528;8.666;2024-03-08T11:21:03;13.10;98.50
5554;DHT22;2800;49.528;8.666;2024-03-08T11:23:32;13.10;98.50
5554;DHT22;2800;49.528;8.666;2024-03-08T11:25:59;11.60;98.60
5554;DHT22;2800;49.528;8.666;2024-03-08T11:28:24;11.80;97.90
5554;DHT22;2800;49.528;8.666;2024-03-08T11:31:21;11.60;97.80
5554;DHT22;2800;49.528;8.666;2024-03-08T11:33:46;11.70;97.70
5554;DHT22;2800;49.528;8.666;2024-03-08T11:36:13;11.50;98.20
5554;DHT22;2800;49.528;8.666;2024-03-08T11:38:47;12.50;97.90
5554;DHT22;2800;49.528;8.666;2024-03-08T11:41:22;12.20;98.90
5554;DHT22;2800;49.528;8.666;2024-03-08T11:43:49;11.30;97.90
5554;DHT22;2800;49.528;8.666;2024-03-08T11:46:17;11.30;98.70
5554;DHT22;2800;49.528;8.666;2024-03-08T11:48:47;12.30;98.20
5554;DHT22;2800;49.528;8.666;2024-03-08T11:51:14;12.00;98.00
5554;DHT22;2800;49.528;8.666;2024-03-08T11:53:41;12.00;98.40
5554;DHT22;2800;49.528;8.666;2024-03-08T11:56:10;12.40;98.00
5554;DHT22;2800;49.528;8.666;2024-03-08T11:58:37;12.40;98.10
5554;DHT22;2800;49.528;8.666;2024-03-08T12:01:04;12.60;98.70
5554;DHT22;2800;49.528;8.666;2024-03-08T12:03:31;12.70;97.40
5554;DHT22;2800;49.528;8.666;2024-03-08T12:05:59;13.10;98.50
5554;DHT22;2800;49.528;8.666;2024-03-08T12:08:25;14.20;99.70
5554;DHT22;2800;49.528;8.666;2024-03-08T12:10:53;14.80;98.00
5554;DHT22;2800;49.528;8.666;2024-03-08T12:13:28;15.90;97.80
5554;DHT22;2800;49.528;8.666;2024-03-08T12:15:56;15.10;97.50
5554;DHT22;2800;49.528;8.666;2024-03-08T12:18:26;13.20;96.00
5554;DHT22;2800;49.528;8.666;2024-03-08T12:21:11;12.60;96.40
5554;DHT22;2800;49.528;8.666;2024-03-08T12:23:38;13.50;96.80
5554;DHT22;2800;49.528;8.666;2024-03-08T12:26:25;14.60;96.90
5554;DHT22;2800;49.528;8.666;2024-03-08T12:28:52;14.70;96.40
5554;DHT22;2800;49.528;8.666;2024-03-08T12:31:18;15.40;97.30
5554;DHT22;2800;49.528;8.666;2024-03-08T12:33:55;16.10;97.90
5554;DHT22;2800;49.528;8.666;2024-03-08T12:36:24;15.70;95.70
5554;DHT22;2800;49.528;8.666;2024-03-08T12:38:51;15.30;94.80
5554;DHT22;2800;49.528;8.666;2024-03-08T12:41:20;14.90;95.20
5554;DHT22;2800;49.528;8.666;2024-03-08T12:43:46;15.50;95.20
5554;DHT22;2800;49.528;8.666;2024-03-08T12:46:15;15.30;95.20
5554;DHT22;2800;49.528;8.666;2024-03-08T12:48:42;15.40;94.90
5554;DHT22;2800;49.528;8.666;2024-03-08T12:51:15;14.80;94.50
5554;DHT22;2800;49.528;8.666;2024-03-08T12:53:44;15.60;95.10
5554;DHT22;2800;49.528;8.666;2024-03-08T12:56:16;15.20;94.60
5554;DHT22;2800;49.528;8.666;2024-03-08T12:58:45;14.50;94.60
5554;DHT22;2800;49.528;8.666;2024-03-08T13:01:10;15.20;95.50
5554;DHT22;2800;49.528;8.666;2024-03-08T13:03:37;15.60;94.60
5554;DHT22;2800;49.528;8.666;2024-03-08T13:06:04;15.90;93.90
5554;DHT22;2800;49.528;8.666;2024-03-08T13:08:39;15.60;94.40
5554;DHT22;2800;49.528;8.666;2024-03-08T13:11:05;16.60;95.00
5554;DHT22;2800;49.528;8.666;2024-03-08T13:13:34;16.70;93.50
5554;DHT22;2800;49.528;8.666;2024-03-08T13:16:02;16.70;94.20
5554;DHT22;2800;49.528;8.666;2024-03-08T13:18:28;15.40;93.10
5554;DHT22;2800;49.528;8.666;2024-03-08T13:20:54;15.10;93.30
5554;DHT22;2800;49.528;8.666;2024-03-08T13:23:20;16.40;93.50
5554;DHT22;2800;49.528;8.666;2024-03-08T13:25:46;15.90;92.00
5554;DHT22;2800;49.528;8.666;2024-03-08T13:28:14;16.40;92.60
5554;DHT22;2800;49.528;8.666;2024-03-08T13:30:40;16.70;93.40
5554;DHT22;2800;49.528;8.666;2024-03-08T13:33:07;15.80;93.30
5554;DHT22;2800;49.528;8.666;2024-03-08T13:35:32;17.10;93.30
5554;DHT22;2800;49.528;8.666;2024-03-08T13:37:59;16.90;92.70
5554;DHT22;2800;49.528;8.666;2024-03-08T13:40:27;17.20;92.40
5554;DHT22;2800;49.528;8.666;2024-03-08T13:42:52;18.10;92.50
5554;DHT22;2800;49.528;8.666;2024-03-08T13:45:18;17.50;91.50
5554;DHT22;2800;49.528;8.666;2024-03-08T13:47:48;17.60;92.10
5554;DHT22;2800;49.528;8.666;2024-03-08T13:50:14;18.30;92.00
5554;DHT22;2800;49.528;8.666;2024-03-08T13:52:49;17.70;91.30
5554;DHT22;2800;49.528;8.666;2024-03-08T13:55:17;16.80;90.40
5554;DHT22;2800;49.528;8.666;2024-03-08T13:57:43;16.80;90.00
5554;DHT22;2800;49.528;8.666;2024-03-08T14:00:11;16.70;87.50
5554;DHT22;2800;49.528;8.666;2024-03-08T14:02:36;17.90;90.20
5554;DHT22;2800;49.528;8.666;2024-03-08T14:05:02;16.90;88.40
5554;DHT22;2800;49.528;8.666;2024-03-08T14:07:28;16.90;89.20
5554;DHT22;2800;49.528;8.666;2024-03-08T14:09:57;17.40;88.80
5554;DHT22;2800;49.528;8.666;2024-03-08T14:12:22;17.90;88.90
5554;DHT22;2800;49.528;8.666;2024-03-08T14:14:52;17.50;89.30
5554;DHT22;2800;49.528;8.666;2024-03-08T14:17:17;16.30;86.60
5554;DHT22;2800;49.528;8.666;2024-03-08T14:19:43;16.90;89.80
5554;DHT22;2800;49.528;8.666;2024-03-08T14:22:09;16.80;89.90
5554;DHT22;2800;49.528;8.666;2024-03-08T14:24:38;18.00;90.80
5554;DHT22;2800;49.528;8.666;2024-03-08T14:27:05;17.90;90.20
5554;DHT22;2800;49.528;8.666;2024-03-08T14:29:33;17.60;89.80
5554;DHT22;2800;49.528;8.666;2024-03-08T14:31:59;18.30;90.70
5554;DHT22;2800;49.528;8.666;2024-03-08T14:34:26;17.70;89.10
5554;DHT22;2800;49.528;8.666;2024-03-08T14:36:53;16.60;86.30
5554;DHT22;2800;49.528;8.666;2024-03-08T14:39:19;16.10;85.50
5554;DHT22;2800;49.528;8.666;2024-03-08T14:41:47;16.90;88.00
5554;DHT22;2800;49.528;8.666;2024-03-08T14:44:13;17.20;86.90
5554;DHT22;2800;49.528;8.666;2024-03-08T14:46:38;17.40;85.80
5554;DHT22;2800;49.528;8.666;2024-03-08T14:49:04;16.90;84.80
5554;DHT22;2800;49.528;8.666;2024-03-08T14:51:30;16.60;84.00
5554;DHT22;2800;49.528;8.666;2024-03-08T14:53:56;16.40;85.50
5554;DHT22;2800;49.528;8.666;2024-03-08T14:56:22;17.10;85.20
5554;DHT22;2800;49.528;8.666;2024-03-08T14:58:48;17.00;84.40
5554;DHT22;2800;49.528;8.666;2024-03-08T15:01:15;16.90;84.70
5554;DHT22;2800;49.528;8.666;2024-03-08T15:03:44;17.00;84.10
5554;DHT22;2800;49.528;8.666;2024-03-08T15:06:09;17.00;83.50
5554;DHT22;2800;49.528;8.666;2024-03-08T15:08:36;16.90;84.70
5554;DHT22;2800;49.528;8.666;2024-03-08T15:11:03;17.00;84.00
5554;DHT22;2800;49.528;8.666;2024-03-08T15:13:29;17.40;85.20
5554;DHT22;2800;49.528;8.666;2024-03-08T15:16:05;16.60;83.40
5554;DHT22;2800;49.528;8.666;2024-03-08T15:18:31;17.40;83.70
5554;DHT22;2800;49.528;8.666;2024-03-08T15:21:00;16.30;81.80
5554;DHT22;2800;49.528;8.666;2024-03-08T15:23:26;15.30;80.80
5554;DHT22;2800;49.528;8.666;2024-03-08T15:25:52;15.40;79.80
5554;DHT22;2800;49.528;8.666;2024-03-08T15:28:17;15.30;81.10
5554;DHT22;2800;49.528;8.666;2024-03-08T15:30:52;15.60;80.10
5554;DHT22;2800;49.528;8.666;2024-03-08T15:33:20;15.30;80.00
5554;DHT22;2800;49.528;8.666;2024-03-08T15:35:51;15.10;80.70
5554;DHT22;2800;49.528;8.666;2024-03-08T15:38:24;14.70;82.80
5554;DHT22;2800;49.528;8.666;2024-03-08T15:40:50;14.40;84.40
5554;DHT22;2800;49.528;8.666;2024-03-08T15:43:16;14.50;83.00
5554;DHT22;2800;49.528;8.666;2024-03-08T15:45:45;14.60;83.00
5554;DHT22;2800;49.528;8.666;2024-03-08T15:48:11;14.80;84.70
5554;DHT22;2800;49.528;8.666;2024-03-08T15:50:38;15.10;87.90
5554;DHT22;2800;49.528;8.666;2024-03-08T15:53:04;14.90;86.30
5554;DHT22;2800;49.528;8.666;2024-03-08T15:55:29;14.60;84.20
5554;DHT22;2800;49.528;8.666;2024-03-08T15:57:55;14.60;84.60
5554;DHT22;2800;49.528;8.666;2024-03-08T16:00:21;14.50;85.30
5554;DHT22;2800;49.528;8.666;2024-03-08T16:03:04;14.10;82.60
5554;DHT22;2800;49.528;8.666;2024-03-08T16:05:36;14.20;83.70
5554;DHT22;2800;49.528;8.666;2024-03-08T16:08:02;14.70;85.90
5554;DHT22;2800;49.528;8.666;2024-03-08T16:10:28;14.40;84.80
5554;DHT22;2800;49.528;8.666;2024-03-08T16:12:57;14.50;84.50
5554;DHT22;2800;49.528;8.666;2024-03-08T16:15:23;14.50;86.30